Time;durP1;ratioP1;P1;durP2;ratioP2;P2;SDS_P1;SDS_P2;PMS_P1;PMS_P2;Temp;Humidity;BMP_temperature;BMP_pressure;BME280_temperature;BME280_humidity;BME280_pressure;Samples;Min_cycle;Max_cycle;Signal;HPM_P1;HPM_P2
2024/01/18 00:02:58;;;;;;;5.43;3.85;;;;;;;-145.06;100.00;60892.56;5875115;23;20130;-91
2024/01/18 00:06:38;;;;;;;;;;;;;;;;;;;;;
2024/01/18 00:09:50;;;;;;;6.30;4.00;;;;;;;-145.06;100.00;60892.56;5875433;23;20429;-90
2024/01/18 00:13:39;;;;;;;;;;;;;;;;;;;;;
2024/01/18 00:16:37;;;;;;;5.72;4.22;;;;;;;-145.06;100.00;60892.56;5918729;23;20030;-91
2024/01/18 00:24:04;;;;;;;6.05;4.00;;;;;;;-145.06;100.00;60892.56;5917381;23;20045;-89
2024/01/18 00:30:41;;;;;;;6.72;4.15;;;;;;;-145.06;100.00;60892.56;5831265;23;20434;-90
2024/01/18 00:38:12;;;;;;;5.68;3.92;;;;;;;-145.06;100.00;60892.56;5837723;23;20014;-91
2024/01/18 00:41:50;;;;;;;;;;;;;;;;;;;;;
2024/01/18 00:49:10;;;;;;;7.22;4.45;;;;;;;-145.06;100.00;60892.56;5892172;23;20544;-89
2024/01/18 00:59:27;;;;;;;;;;;;;;;-145.06;100.00;60892.56;5828126;23;20673;-91
2024/01/18 01:06:36;;;;;;;;;;;;;;;;;;;;;
2024/01/18 01:10:17;;;;;;;;;;;;;;;;;;;;;
2024/01/18 01:16:46;;;;;;;7.75;4.85;;;;;;;-145.06;100.00;60892.56;5884254;23;20041;-90
2024/01/18 01:23:38;;;;;;;7.75;4.80;;;;;;;-145.06;100.00;60892.56;5951158;23;20009;-90
2024/01/18 01:38:03;;;;;;;;;;;;;;;;;;;;;
2024/01/18 01:41:39;;;;;;;;;;;;;;;;;;;;;
2024/01/18 02:03:32;;;;;;;8.60;5.30;;;;;;;-145.06;100.00;60892.56;5888065;23;20006;-88
2024/01/18 02:07:22;;;;;;;;;;;;;;;;;;;;;
2024/01/18 02:24:30;;;;;;;;;;;;;;;;;;;;;
2024/01/18 02:28:11;;;;;;;7.63;5.07;;;;;;;-145.06;100.00;60892.56;5885184;23;20018;-91
2024/01/18 02:34:57;;;;;;;5.45;3.67;;;;;;;-145.06;100.00;60892.56;5892150;23;20314;-91
2024/01/18 02:38:01;;;;;;;5.65;3.47;;;;;;;-145.06;100.00;60892.56;5885322;23;20006;-91
2024/01/18 02:40:59;;;;;;;7.35;3.78;;;;;;;-145.06;100.00;60892.56;5877536;23;20336;-91
2024/01/18 02:44:20;;;;;;;5.93;3.78;;;;;;;-145.06;100.00;60892.56;5897968;23;20101;-90
2024/01/18 02:47:55;;;;;;;5.38;3.72;;;;;;;-145.06;100.00;60892.56;5887633;23;20015;-91
2024/01/18 02:51:04;;;;;;;5.85;3.67;;;;;;;-145.06;100.00;60892.56;5869243;23;20010;-90
2024/01/18 02:54:38;;;;;;;4.78;3.15;;;;;;;-145.06;100.00;60892.56;5898773;23;20006;-90
2024/01/18 02:58:30;;;;;;;;;;;;;;;;;;;;;
2024/01/18 03:09:28;;;;;;;;;;;;;;;;;;;;;
2024/01/18 03:13:15;;;;;;;;;;;;;;;;;;;;;
2024/01/18 03:16:45;;;;;;;4.15;2.90;;;;;;;-145.06;100.00;60892.56;5878934;23;20041;-91
2024/01/18 03:23:41;;;;;;;;;;;;;;;;;;;;;
2024/01/18 03:27:18;;;;;;;3.85;2.80;;;;;;;-145.06;100.00;60892.56;5890361;23;20295;-90
2024/01/18 03:31:05;;;;;;;5.60;3.20;;;;;;;-145.06;100.00;60892.56;5878669;23;20042;-91
2024/01/18 03:34:35;;;;;;;5.30;3.00;;;;;;;-145.06;100.00;60892.56;5845701;23;20011;-90
2024/01/18 03:37:50;;;;;;;;;;;;;;;;;;;;;
2024/01/18 04:24:36;;;;;;;4.60;3.35;;;;;;;-145.06;100.00;60892.56;5884335;23;20093;-89
2024/01/18 04:27:39;;;;;;;5.22;3.45;;;;;;;-145.06;100.00;60892.56;5885268;23;20010;-89
2024/01/18 04:31:06;;;;;;;5.57;3.90;;;;;;;-145.06;100.00;60892.56;5895317;23;20096;-91
2024/01/18 04:47:56;;;;;;;;;;;;;;;;;;;;;
2024/01/18 05:16:33;;;;;;;4.77;3.33;;;;;;;-145.06;100.00;60892.56;5918158;23;20432;-90
2024/01/18 05:50:43;;;;;;;4.40;2.95;;;;;;;-145.06;100.00;60892.56;5806455;23;20090;-91
2024/01/18 06:53:11;;;;;;;;;;;;;;;;;;;;;
2024/01/18 07:11:15;;;;;;;;;;;;;;;-145.06;100.00;60892.56;5735533;24;20032;-91
2024/01/18 07:18:17;;;;;;;5.03;3.45;;;;;;;-145.06;100.00;60892.56;5696987;24;20017;-91
2024/01/18 07:32:54;;;;;;;;;;;;;;;;;;;;;
2024/01/18 07:40:14;;;;;;;;;;;;;;;;;;;;;
2024/01/18 07:52:31;;;;;;;7.47;4.05;;;;;;;-145.06;100.00;60892.56;5938896;23;20031;-90
2024/01/18 07:56:20;;;;;;;;;;;;;;;;;;;;;
2024/01/18 08:14:07;;;;;;;5.10;3.53;;;;;;;-145.06;100.00;60892.56;5835556;23;20011;-92
2024/01/18 09:10:12;;;;;;;;;;;;;;;;;;;;;
2024/01/18 09:13:34;;;;;;;;;;;;;;;;;;;;;
2024/01/18 09:20:33;;;;;;;7.75;4.70;;;;;;;-145.06;100.00;60892.56;5945202;23;20010;-90
2024/01/18 09:31:34;;;;;;;5.97;3.70;;;;;;;-145.06;100.00;60892.56;5897789;23;20374;-91
2024/01/18 09:51:25;;;;;;;6.53;4.55;;;;;;;-145.06;100.00;60892.56;5889846;23;20006;-90
2024/01/18 10:02:38;;;;;;;7.75;4.38;;;;;;;-145.06;100.00;60892.56;5877340;23;20002;-92
2024/01/18 10:06:22;;;;;;;6.10;4.10;;;;;;;-145.06;100.00;60892.56;5877423;23;20073;-91
2024/01/18 10:09:15;;;;;;;8.10;4.95;;;;;;;-145.06;100.00;60892.56;5859653;23;20015;-92
2024/01/18 10:21:14;;;;;;;9.50;4.82;;;;;;;-145.06;100.00;60892.56;5876636;23;20010;-90
2024/01/18 10:24:18;;;;;;;;;;;;;;;-145.06;100.00;60892.56;5878911;23;20330;-90
2024/01/18 10:27:34;;;;;;;;;;;;;;;;;;;;;
2024/01/18 10:30:38;;;;;;;5.70;3.72;;;;;;;-145.06;100.00;60892.56;5881706;23;20314;-89
2024/01/18 10:33:42;;;;;;;6.60;4.63;;;;;;;-145.06;100.00;60892.56;5876664;23;19999;-90
2024/01/18 10:36:44;;;;;;;9.77;5.70;;;;;;;-145.06;100.00;60892.56;5893079;23;20038;-91
2024/01/18 10:40:02;;;;;;;7.78;5.32;;;;;;;-145.06;100.00;60892.56;5874125;23;20015;-90
2024/01/18 10:43:07;;;;;;;9.43;4.78;;;;;;;-145.06;100.00;60892.56;5876867;23;20006;-90
2024/01/18 10:46:00;;;;;;;7.18;4.88;;;;;;;-145.06;100.00;60892.56;5876392;23;20006;-90
2024/01/18 10:48:57;;;;;;;7.03;4.80;;;;;;;-145.06;100.00;60892.56;5875712;23;20003;-90
2024/01/18 10:51:40;;;;;;;6.50;4.53;;;;;;;-145.06;100.00;60892.56;5875995;23;20010;-91
2024/01/18 10:54:19;;;;;;;9.15;6.20;;;;;;;-145.06;100.00;60892.56;5875518;23;20014;-90
2024/01/18 10:56:59;;;;;;;8.68;6.55;;;;;;;-145.06;100.00;60892.56;5875361;23;20011;-91
2024/01/18 10:59:44;;;;;;;9.48;6.10;;;;;;;-145.06;100.00;60892.56;5874930;23;20086;-90
2024/01/18 11:02:29;;;;;;;10.13;6.05;;;;;;;-145.06;100.00;60892.56;5875287;23;20010;-90
2024/01/18 11:05:24;;;;;;;;;;;;;;;;;;;;;
2024/01/18 11:08:04;;;;;;;10.95;5.68;;;;;;;-145.06;100.00;60892.56;5885673;23;20011;-90
2024/01/18 11:10:56;;;;;;;10.55;5.50;;;;;;;-145.06;100.00;60892.56;5879568;23;20006;-91
2024/01/18 11:13:41;;;;;;;9.55;5.90;;;;;;;-145.06;100.00;60892.56;5876318;23;20053;-91
2024/01/18 11:16:26;;;;;;;8.88;6.45;;;;;;;-145.06;100.00;60892.56;5875284;23;20329;-90
2024/01/18 11:19:12;;;;;;;9.50;6.45;;;;;;;-145.06;100.00;60892.56;5876614;23;20040;-89
2024/01/18 11:21:56;;;;;;;14.85;7.93;;;;;;;-145.06;100.00;60892.56;5876643;23;20010;-91
2024/01/18 11:25:05;;;;;;;12.43;6.95;;;;;;;-145.06;100.00;60892.56;5876510;23;20624;-89
2024/01/18 11:27:52;;;;;;;13.05;7.88;;;;;;;-145.06;100.00;60892.56;5876259;23;20014;-89
2024/01/18 11:30:56;;;;;;;15.40;8.48;;;;;;;-145.06;100.00;60892.56;5876488;23;20015;-90
2024/01/18 11:33:49;;;;;;;14.48;8.77;;;;;;;-145.06;100.00;60892.56;5876161;23;20010;-90
2024/01/18 11:36:32;;;;;;;15.35;9.60;;;;;;;-145.06;100.00;60892.56;5875032;23;20222;-90
2024/01/18 11:39:42;;;;;;;14.45;8.88;;;;;;;-145.06;100.00;60892.56;5876452;23;20014;-91
2024/01/18 11:42:33;;;;;;;;;;;;;;;-145.06;100.00;60892.56;5876873;23;20011;-90
2024/01/18 11:45:38;;;;;;;15.85;8.73;;;;;;;-145.06;100.00;60892.56;5876991;23;19929;-90
2024/01/18 11:52:13;;;;;;;;;;;;;;;;;;;;;
2024/01/18 11:56:03;;;;;;;10.60;7.10;;;;;;;-145.06;100.00;60892.56;5878010;23;20046;-90
2024/01/18 11:58:57;;;;;;;;;;;;;;;;;;;;;
2024/01/18 12:01:53;;;;;;;8.48;5.97;;;;;;;-145.06;100.00;60892.56;5829792;23;20037;-90
2024/01/18 12:05:20;;;;;;;9.98;6.22;;;;;;;-145.06;100.00;60892.56;5849963;23;20315;-92
2024/01/18 12:08:37;;;;;;;9.57;5.18;;;;;;;-145.06;100.00;60892.56;5848504;23;20093;-91
2024/01/18 12:12:06;;;;;;;7.13;4.70;;;;;;;-145.06;100.00;60892.56;5857543;23;20011;-91
2024/01/18 12:15:36;;;;;;;7.45;5.28;;;;;;;-145.06;100.00;60892.56;5869691;23;20038;-89
2024/01/18 12:18:38;;;;;;;6.30;4.65;;;;;;;-145.06;100.00;60892.56;5975215;23;20005;-91
2024/01/18 12:25:39;;;;;;;10.25;5.70;;;;;;;-145.06;100.00;60892.56;5860796;23;20011;-90
2024/01/18 12:39:34;;;;;;;7.35;4.70;;;;;;;-145.06;100.00;60892.56;5859942;23;20007;-91
2024/01/18 12:42:37;;;;;;;6.50;4.22;;;;;;;-145.06;100.00;60892.56;5849396;23;20007;-89
2024/01/18 12:45:16;;;;;;;8.60;4.88;;;;;;;-145.06;100.00;60892.56;5848998;23;20015;-91
2024/01/18 12:47:58;;;;;;;7.53;4.80;;;;;;;-145.06;100.00;60892.56;5848531;23;20011;-90
2024/01/18 12:50:43;;;;;;;7.13;4.63;;;;;;;-145.06;100.00;60892.56;5849159;23;20397;-90
2024/01/18 12:53:31;;;;;;;7.53;4.55;;;;;;;-145.06;100.00;60892.56;5849464;23;20066;-90
2024/01/18 12:56:15;;;;;;;7.30;4.40;;;;;;;-145.06;100.00;60892.56;5849253;23;20014;-91
2024/01/18 12:58:59;;;;;;;6.97;4.00;;;;;;;-145.06;100.00;60892.56;5848374;23;20007;-89
2024/01/18 13:01:43;;;;;;;7.07;4.68;;;;;;;-145.06;100.00;60892.56;5848410;23;20011;-90
2024/01/18 13:04:36;;;;;;;7.68;4.30;;;;;;;-145.06;100.00;60892.56;5847893;23;20007;-90
2024/01/18 13:07:17;;;;;;;5.35;3.80;;;;;;;-145.06;100.00;60892.56;5847624;23;20022;-90
2024/01/18 13:09:59;;;;;;;7.25;4.10;;;;;;;-145.06;100.00;60892.56;5848739;23;20437;-90
2024/01/18 13:12:43;;;;;;;5.47;3.33;;;;;;;-145.06;100.00;60892.56;5846997;23;20007;-89
2024/01/18 13:15:23;;;;;;;5.82;4.07;;;;;;;-145.06;100.00;60892.56;5847641;23;20176;-90
2024/01/18 13:18:10;;;;;;;5.85;3.92;;;;;;;-145.06;100.00;60892.56;5847203;23;20015;-89
2024/01/18 13:20:49;;;;;;;6.53;3.95;;;;;;;-145.06;100.00;60892.56;5847192;23;20045;-89
2024/01/18 13:23:33;;;;;;;5.03;3.50;;;;;;;-145.06;100.00;60892.56;5847371;23;20015;-90
2024/01/18 13:26:12;;;;;;;6.88;4.22;;;;;;;-145.06;100.00;60892.56;5847948;23;20011;-90
2024/01/18 13:28:52;;;;;;;5.72;3.88;;;;;;;-145.06;100.00;60892.56;5858033;23;20085;-89
2024/01/18 13:31:32;;;;;;;5.80;3.80;;;;;;;-145.06;100.00;60892.56;5848297;23;20002;-90
2024/01/18 13:34:16;;;;;;;5.63;3.92;;;;;;;-145.06;100.00;60892.56;5847419;23;20247;-90
2024/01/18 13:36:56;;;;;;;5.32;3.67;;;;;;;-145.06;100.00;60892.56;5848389;23;20014;-90
2024/01/18 13:39:38;;;;;;;4.63;3.20;;;;;;;-145.06;100.00;60892.56;5858488;23;20006;-90
2024/01/18 13:42:19;;;;;;;5.22;3.33;;;;;;;-145.06;100.00;60892.56;5847362;23;20030;-90
2024/01/18 13:45:01;;;;;;;5.00;2.88;;;;;;;-145.06;100.00;60892.56;5848131;23;20007;-90
2024/01/18 13:47:40;;;;;;;3.92;2.72;;;;;;;-145.06;100.00;60892.56;5858432;23;20347;-92
2024/01/18 13:50:21;;;;;;;4.30;2.95;;;;;;;-145.06;100.00;60892.56;5848039;23;20015;-90
2024/01/18 13:53:03;;;;;;;4.88;3.08;;;;;;;-145.06;100.00;60892.56;5848260;23;20010;-90
2024/01/18 13:55:43;;;;;;;4.40;2.78;;;;;;;-145.06;100.00;60892.56;5846964;23;20015;-91
2024/01/18 13:58:23;;;;;;;5.50;3.03;;;;;;;-145.06;100.00;60892.56;5847856;23;20011;-90
2024/01/18 14:01:07;;;;;;;4.30;3.33;;;;;;;-145.06;100.00;60892.56;5848830;23;20007;-91
2024/01/18 14:03:49;;;;;;;4.60;3.20;;;;;;;-145.06;100.00;60892.56;5858939;23;20011;-91
2024/01/18 14:06:28;;;;;;;5.45;3.20;;;;;;;-145.06;100.00;60892.56;5846879;23;20007;-89
2024/01/18 14:09:11;;;;;;;4.50;2.97;;;;;;;-145.06;100.00;60892.56;5846410;23;20014;-90
2024/01/18 14:11:50;;;;;;;5.60;2.58;;;;;;;-145.06;100.00;60892.56;5857852;23;20003;-89
2024/01/18 14:14:29;;;;;;;3.92;2.92;;;;;;;-145.06;100.00;60892.56;5847109;23;20010;-90
2024/01/18 14:17:08;;;;;;;4.40;2.97;;;;;;;-145.06;100.00;60892.56;5846101;23;20011;-90
2024/01/18 14:19:49;;;;;;;3.30;2.47;;;;;;;-145.06;100.00;60892.56;5846692;23;20014;-89
2024/01/18 14:22:28;;;;;;;4.97;3.00;;;;;;;-145.06;100.00;60892.56;5846385;23;20011;-90
2024/01/18 14:25:08;;;;;;;5.47;3.20;;;;;;;-145.06;100.00;60892.56;5847552;23;20023;-90
2024/01/18 14:27:50;;;;;;;5.60;3.50;;;;;;;-145.06;100.00;60892.56;5846559;23;20247;-89
2024/01/18 14:30:30;;;;;;;6.70;4.32;;;;;;;-145.06;100.00;60892.56;5855776;23;20002;-90
2024/01/18 14:33:13;;;;;;;6.30;3.90;;;;;;;-145.06;100.00;60892.56;5846013;23;20010;-88
2024/01/18 14:35:52;;;;;;;7.80;4.13;;;;;;;-145.06;100.00;60892.56;5845846;23;20318;-89
2024/01/18 14:38:31;;;;;;;7.50;4.60;;;;;;;-145.06;100.00;60892.56;5856504;23;20110;-91
2024/01/18 14:41:10;;;;;;;5.95;4.10;;;;;;;-145.06;100.00;60892.56;5846341;23;20377;-90
2024/01/18 14:43:57;;;;;;;6.43;4.07;;;;;;;-145.06;100.00;60892.56;5845351;23;20081;-90
2024/01/18 14:46:36;;;;;;;5.40;3.22;;;;;;;-145.06;100.00;60892.56;5855809;23;20524;-88
2024/01/18 14:49:18;;;;;;;6.53;3.45;;;;;;;-145.06;100.00;60892.56;5856196;23;20010;-89
2024/01/18 14:52:00;;;;;;;4.75;3.03;;;;;;;-145.06;100.00;60892.56;5866942;23;20007;-90
2024/01/18 14:54:39;;;;;;;5.05;3.65;;;;;;;-145.06;100.00;60892.56;5847231;23;20038;-91
2024/01/18 14:57:22;;;;;;;6.53;3.97;;;;;;;-145.06;100.00;60892.56;5844890;23;20011;-90
2024/01/18 15:00:13;;;;;;;8.00;4.30;;;;;;;-145.06;100.00;60892.56;5846880;23;20011;-91
2024/01/18 15:02:54;;;;;;;10.70;6.05;;;;;;;-145.06;100.00;60892.56;5847266;23;20010;-90
2024/01/18 15:05:37;;;;;;;9.30;5.35;;;;;;;-145.06;100.00;60892.56;5857299;23;20011;-90
2024/01/18 15:08:16;;;;;;;8.40;5.10;;;;;;;-145.06;100.00;60892.56;5847170;23;20010;-91
2024/01/18 15:11:02;;;;;;;9.90;5.83;;;;;;;-145.06;100.00;60892.56;5847405;23;20085;-89
2024/01/18 15:13:42;;;;;;;8.70;5.18;;;;;;;-145.06;100.00;60892.56;5846277;23;20003;-88
2024/01/18 15:16:22;;;;;;;7.10;5.03;;;;;;;-145.06;100.00;60892.56;5846830;23;20014;-90
2024/01/18 15:19:07;;;;;;;7.45;4.68;;;;;;;-145.06;100.00;60892.56;5846544;23;20247;-90
2024/01/18 15:21:47;;;;;;;7.50;4.78;;;;;;;-145.06;100.00;60892.56;5867620;23;20011;-89
2024/01/18 15:24:26;;;;;;;;;;;;;;;-145.06;100.00;60892.56;5847098;23;20007;-90
2024/01/18 15:27:08;;;;;;;5.78;3.67;;;;;;;-145.06;100.00;60892.56;5846749;23;19941;-88
2024/01/18 15:29:47;;;;;;;7.60;4.68;;;;;;;-145.06;100.00;60892.56;5847309;23;20019;-88
2024/01/18 15:32:26;;;;;;;6.68;4.85;;;;;;;-145.06;100.00;60892.56;5867052;23;20077;-90
2024/01/18 15:35:05;;;;;;;9.10;4.70;;;;;;;-145.06;100.00;60892.56;5857353;23;20036;-89
2024/01/18 15:37:47;;;;;;;8.45;4.93;;;;;;;-145.06;100.00;60892.56;5867990;23;20247;-89
2024/01/18 15:40:27;;;;;;;6.25;3.95;;;;;;;-145.06;100.00;60892.56;5858164;23;20015;-89
2024/01/18 15:43:06;;;;;;;7.53;4.73;;;;;;;-145.06;100.00;60892.56;5847978;23;20007;-90
2024/01/18 15:45:47;;;;;;;8.87;5.40;;;;;;;-145.06;100.00;60892.56;5847308;23;20019;-90
2024/01/18 15:48:28;;;;;;;9.73;5.55;;;;;;;-145.06;100.00;60892.56;5848132;23;20698;-90
2024/01/18 15:51:11;;;;;;;7.50;4.60;;;;;;;-145.06;100.00;60892.56;5858697;23;20019;-90
2024/01/18 15:53:51;;;;;;;8.18;4.90;;;;;;;-145.06;100.00;60892.56;5846566;23;20007;-90
2024/01/18 15:56:30;;;;;;;8.98;5.05;;;;;;;-145.06;100.00;60892.56;5848448;23;20015;-90
2024/01/18 15:59:13;;;;;;;8.23;5.03;;;;;;;-145.06;100.00;60892.56;5847346;23;20481;-90
2024/01/18 16:01:52;;;;;;;8.77;5.18;;;;;;;-145.06;100.00;60892.56;5847085;23;20706;-89
2024/01/18 16:04:31;;;;;;;10.47;5.50;;;;;;;-145.06;100.00;60892.56;5846020;23;20011;-88
2024/01/18 16:07:10;;;;;;;8.93;5.07;;;;;;;-145.06;100.00;60892.56;5858003;23;20406;-89
2024/01/18 16:09:50;;;;;;;8.90;5.40;;;;;;;-145.06;100.00;60892.56;5847956;23;20050;-91
2024/01/18 16:12:30;;;;;;;7.90;5.07;;;;;;;-145.06;100.00;60892.56;5847382;23;20007;-88
2024/01/18 16:15:09;;;;;;;7.93;5.00;;;;;;;-145.06;100.00;60892.56;5845552;23;20243;-89
2024/01/18 16:18:01;;;;;;;8.83;5.43;;;;;;;-145.06;100.00;60892.56;5847983;23;20007;-91
2024/01/18 16:20:50;;;;;;;8.02;4.80;;;;;;;-145.06;100.00;60892.56;5847027;23;20006;-89
2024/01/18 16:26:37;;;;;;;6.70;4.47;;;;;;;1.04;100.00;60892.56;5856494;23;20010;-89
2024/01/18 16:29:27;;;;;;;7.70;5.22;;;;;;;-145.06;100.00;60892.56;5846410;23;20011;-89
2024/01/18 16:32:06;;;;;;;8.70;5.40;;;;;;;187.52;100.00;60892.56;5845079;23;20453;-90
2024/01/18 16:34:49;;;;;;;8.95;5.50;;;;;;;-145.06;100.00;60892.56;5844967;23;20014;-89
2024/01/18 16:37:28;;;;;;;8.52;4.88;;;;;;;-145.06;100.00;60892.56;5845919;23;20015;-88
2024/01/18 16:40:08;;;;;;;8.93;5.57;;;;;;;-145.06;100.00;60892.56;5844144;23;20011;-89
2024/01/18 16:42:46;;;;;;;;;;;;;;;-145.06;100.00;60892.56;5844615;23;20015;-89
2024/01/18 16:45:26;;;;;;;9.48;5.38;;;;;;;-145.06;100.00;60892.56;5845932;23;19906;-90
2024/01/18 16:48:11;;;;;;;8.50;5.00;;;;;;;-145.06;100.00;60892.56;5847896;23;20003;-89
2024/01/18 16:50:53;;;;;;;8.73;4.80;;;;;;;-145.06;100.00;60892.56;5856414;23;20370;-90
2024/01/18 16:53:32;;;;;;;9.88;5.90;;;;;;;-145.06;100.00;60892.56;5847236;23;20007;-88
2024/01/18 16:56:14;;;;;;;8.77;5.63;;;;;;;-145.06;100.00;60892.56;5846100;23;20046;-88
2024/01/18 16:58:59;;;;;;;9.43;5.72;;;;;;;-145.06;100.00;60892.56;5857755;23;20003;-89
2024/01/18 17:01:54;;;;;;;9.80;5.80;;;;;;;-145.06;100.00;60892.56;5845672;23;20003;-89
2024/01/18 17:04:33;;;;;;;9.38;4.93;;;;;;;-145.06;100.00;60892.56;5846009;23;20444;-89
2024/01/18 17:07:19;;;;;;;10.88;5.85;;;;;;;-145.06;100.00;60892.56;5846740;23;20093;-89
2024/01/18 17:10:04;;;;;;;7.68;5.15;;;;;;;-145.06;100.00;60892.56;5846154;23;20010;-89
2024/01/18 17:12:44;;;;;;;8.93;5.50;;;;;;;-145.06;100.00;60892.56;5845189;23;20010;-90
2024/01/18 17:15:25;;;;;;;10.35;6.10;;;;;;;-145.06;100.00;60892.56;5846325;23;20508;-87
2024/01/18 17:18:17;;;;;;;7.47;4.72;;;;;;;-145.06;100.00;60892.56;5867008;23;20007;-88
2024/01/18 17:20:57;;;;;;;8.90;5.20;;;;;;;-145.06;100.00;60892.56;5857270;23;20014;-89
2024/01/18 17:23:36;;;;;;;10.23;5.35;;;;;;;-145.06;100.00;60892.56;5846445;23;20547;-89
2024/01/18 17:26:29;;;;;;;8.23;5.13;;;;;;;-145.06;100.00;60892.56;5857295;23;20015;-90
2024/01/18 17:29:09;;;;;;;7.07;4.70;;;;;;;-145.06;100.00;60892.56;5846905;23;20007;-89
2024/01/18 17:32:29;;;;;;;10.60;6.25;;;;;;;-145.06;100.00;60892.56;5846556;23;20014;-90
2024/01/18 17:35:48;;;;;;;9.77;5.30;;;;;;;-145.06;100.00;60892.56;5846610;23;20007;-88
2024/01/18 17:38:45;;;;;;;7.57;5.13;;;;;;;-145.06;100.00;60892.56;5845066;23;20014;-87
2024/01/18 17:41:37;;;;;;;10.38;5.50;;;;;;;-145.06;100.00;60892.56;5845907;23;20473;-89
2024/01/18 17:44:52;;;;;;;10.73;6.07;;;;;;;-145.06;100.00;60892.56;5872709;23;20019;-89
2024/01/18 17:47:34;;;;;;;8.35;5.32;;;;;;;-145.06;100.00;60892.56;5875011;23;20007;-89
2024/01/18 17:50:19;;;;;;;8.90;5.72;;;;;;;-145.06;100.00;60892.56;5874398;23;20010;-90
2024/01/18 17:53:35;;;;;;;;;;;;;;;;;;;;;
2024/01/18 17:59:42;;;;;;;8.68;4.85;;;;;;;2.89;100.00;60892.56;5884355;23;20101;-89
2024/01/18 18:02:46;;;;;;;10.13;5.28;;;;;;;-145.06;100.00;60892.56;5873763;23;20010;-90
2024/01/18 18:05:58;;;;;;;8.82;5.55;;;;;;;-145.06;100.00;60892.56;5853713;23;20010;-90
2024/01/18 18:12:49;;;;;;;;;;;;;;;;;;;;;
2024/01/18 18:15:32;;;;;;;9.95;5.30;;;;;;;-145.06;100.00;60892.56;5886320;23;20010;-90
2024/01/18 18:18:16;;;;;;;9.07;5.07;;;;;;;-145.06;100.00;60892.56;5873055;23;20014;-89
2024/01/18 18:21:08;;;;;;;8.00;4.50;;;;;;;-145.06;100.00;60892.56;5870475;23;20010;-89
2024/01/18 18:23:57;;;;;;;7.35;4.50;;;;;;;-145.06;100.00;60892.56;5874843;23;20014;-90
2024/01/18 18:26:38;;;;;;;8.48;4.90;;;;;;;-145.06;100.00;60892.56;5874396;23;20481;-90
2024/01/18 18:29:25;;;;;;;7.65;4.53;;;;;;;-145.06;100.00;60892.56;5874538;23;20081;-88
2024/01/18 18:32:11;;;;;;;7.93;4.90;;;;;;;-145.06;100.00;60892.56;5873770;23;20621;-89
2024/01/18 18:34:53;;;;;;;8.15;4.90;;;;;;;-145.06;100.00;60892.56;5873833;23;20010;-90
2024/01/18 18:37:41;;;;;;;7.57;4.97;;;;;;;-145.06;100.00;60892.56;5874879;23;20007;-89
2024/01/18 18:40:29;;;;;;;8.10;4.97;;;;;;;-145.06;100.00;60892.56;5874817;23;20011;-89
2024/01/18 18:43:23;;;;;;;7.50;4.88;;;;;;;-145.06;100.00;60892.56;5873631;23;20010;-91
2024/01/18 18:46:06;;;;;;;9.77;5.50;;;;;;;-145.06;100.00;60892.56;5874668;23;20010;-90
2024/01/18 18:48:49;;;;;;;11.18;5.35;;;;;;;-145.06;100.00;60892.56;5875218;23;20010;-89
2024/01/18 18:51:28;;;;;;;10.70;6.20;;;;;;;-145.06;100.00;60892.56;5874842;23;20007;-89
2024/01/18 18:54:19;;;;;;;9.98;6.18;;;;;;;-145.06;100.00;60892.56;5874673;23;20010;-89
2024/01/18 18:57:26;;;;;;;10.48;5.90;;;;;;;-145.06;100.00;60892.56;5874390;23;20002;-90
2024/01/18 19:00:09;;;;;;;10.95;6.50;;;;;;;-145.06;100.00;60892.56;5873968;23;20014;-89
2024/01/18 19:02:51;;;;;;;9.15;5.63;;;;;;;-145.06;100.00;60892.56;5872579;23;20221;-90
2024/01/18 19:05:33;;;;;;;12.25;6.68;;;;;;;-145.06;100.00;60892.56;5873712;23;20011;-89
2024/01/18 19:08:15;;;;;;;9.07;5.88;;;;;;;-145.06;100.00;60892.56;5874324;23;20468;-91
2024/01/18 19:11:02;;;;;;;12.48;6.88;;;;;;;-145.06;100.00;60892.56;5875485;23;20433;-90
2024/01/18 19:13:50;;;;;;;10.18;6.45;;;;;;;-145.06;100.00;60892.56;5875253;23;20007;-90
2024/01/18 19:16:35;;;;;;;11.50;6.30;;;;;;;-145.06;100.00;60892.56;5875619;23;20011;-90
2024/01/18 19:19:47;;;;;;;12.45;6.78;;;;;;;-145.06;100.00;60892.56;5876444;23;20018;-90
2024/01/18 19:23:15;;;;;;;11.70;6.68;;;;;;;-145.06;100.00;60892.56;5895884;23;20568;-89
2024/01/18 19:26:15;;;;;;;11.27;6.47;;;;;;;-145.06;100.00;60892.56;5876543;23;20014;-90
2024/01/18 19:29:06;;;;;;;9.32;5.70;;;;;;;-145.06;100.00;60892.56;5874665;23;20006;-91
2024/01/18 19:31:51;;;;;;;8.73;5.88;;;;;;;-145.06;100.00;60892.56;5873551;23;20010;-91
2024/01/18 19:34:46;;;;;;;8.85;5.25;;;;;;;-145.06;100.00;60892.56;5875572;23;20081;-90
2024/01/18 19:37:28;;;;;;;8.73;5.40;;;;;;;-145.06;100.00;60892.56;5875691;23;20007;-90
2024/01/18 19:40:12;;;;;;;11.75;5.90;;;;;;;-145.06;100.00;60892.56;5875846;23;20041;-90
2024/01/18 19:43:14;;;;;;;7.45;4.70;;;;;;;-145.06;100.00;60892.56;5876849;23;20010;-90
2024/01/18 19:45:59;;;;;;;8.75;5.75;;;;;;;-145.06;100.00;60892.56;5877301;23;20015;-90
2024/01/18 19:48:43;;;;;;;8.27;5.18;;;;;;;-145.06;100.00;60892.56;5875301;23;20010;-90
2024/01/18 19:59:02;;;;;;;6.57;4.20;;;;;;;-145.06;100.00;60892.56;5886746;23;20014;-90
2024/01/18 20:01:47;;;;;;;6.30;4.13;;;;;;;-145.06;100.00;60892.56;5875837;23;20002;-89
2024/01/18 20:04:51;;;;;;;7.07;4.50;;;;;;;-145.06;100.00;60892.56;5876041;23;20007;-89
2024/01/18 20:07:53;;;;;;;7.97;4.50;;;;;;;-145.06;100.00;60892.56;5876138;23;20003;-89
2024/01/18 20:10:44;;;;;;;7.10;5.13;;;;;;;-145.06;100.00;60892.56;5875939;23;20287;-89
2024/01/18 20:13:54;;;;;;;7.50;5.38;;;;;;;-145.06;100.00;60892.56;5876331;23;20030;-90
2024/01/18 20:16:47;;;;;;;8.23;4.95;;;;;;;-145.06;100.00;60892.56;6030823;23;20012;-91
2024/01/18 20:19:37;;;;;;;6.97;5.00;;;;;;;-145.06;100.00;60892.56;6022118;23;20152;-90
2024/01/18 20:22:57;;;;;;;6.80;4.40;;;;;;;-145.06;100.00;60892.56;6022823;23;20091;-89
2024/01/18 20:30:01;;;;;;;;;;;;;;;-145.06;100.00;60892.56;5848152;23;20011;-89
2024/01/18 20:32:57;;;;;;;4.82;3.60;;;;;;;-145.06;100.00;60892.56;5897462;23;19906;-90
2024/01/18 20:36:02;;;;;;;6.60;4.10;;;;;;;-145.06;100.00;60892.56;5875848;23;20010;-89
2024/01/18 20:39:01;;;;;;;5.00;3.45;;;;;;;-145.06;100.00;60892.56;5875666;23;20006;-90
2024/01/18 20:42:33;;;;;;;9.33;5.30;;;;;;;-145.06;100.00;60892.56;5875215;23;20011;-89
2024/01/18 20:49:05;;;;;;;5.55;3.80;;;;;;;-145.06;100.00;60892.56;5886093;23;20014;-89
2024/01/18 20:52:19;;;;;;;4.97;3.35;;;;;;;-145.06;100.00;60892.56;5874857;23;20362;-90
2024/01/18 20:55:07;;;;;;;7.18;4.32;;;;;;;-145.06;100.00;60892.56;5896104;23;20433;-90
2024/01/18 20:57:51;;;;;;;6.38;4.10;;;;;;;-145.06;100.00;60892.56;5875318;23;20041;-88
2024/01/18 21:00:43;;;;;;;6.45;4.22;;;;;;;-145.06;100.00;60892.56;5884434;23;20006;-90
2024/01/18 21:09:57;;;;;;;6.25;4.57;;;;;;;-145.06;100.00;60892.56;5884497;23;20007;-90
2024/01/18 21:16:59;;;;;;;;;;;;;;;;;;;;;
2024/01/18 21:23:41;;;;;;;7.35;4.78;;;;;;;-145.06;100.00;60892.56;5913392;23;20014;-90
2024/01/18 21:27:15;;;;;;;6.30;4.22;;;;;;;-145.06;100.00;60892.56;5863052;22;20014;-90
2024/01/18 21:30:30;;;;;;;6.25;4.28;;;;;;;-145.06;100.00;60892.56;5872007;23;20484;-90
2024/01/18 21:33:54;;;;;;;6.43;4.45;;;;;;;-145.06;100.00;60892.56;5866131;23;20022;-90
2024/01/18 21:37:06;;;;;;;;;;;;;;;;;;;;;
2024/01/18 21:43:18;;;;;;;5.38;3.40;;;;;;;-145.06;100.00;60892.56;5886373;23;20422;-89
2024/01/18 21:46:12;;;;;;;5.93;4.45;;;;;;;-145.06;100.00;60892.56;5869552;23;20034;-92
2024/01/18 21:49:43;;;;;;;;;;;;;;;;;;;;;
2024/01/18 21:52:51;;;;;;;5.80;4.15;;;;;;;-145.06;100.00;60892.56;5887077;23;20261;-91
2024/01/18 21:55:39;;;;;;;6.03;4.00;;;;;;;-145.06;100.00;60892.56;5877477;23;20040;-90
2024/01/18 21:58:21;;;;;;;6.57;4.15;;;;;;;-145.06;100.00;60892.56;5872607;23;20007;-91
2024/01/18 22:01:14;;;;;;;6.65;4.07;;;;;;;-145.06;100.00;60892.56;5876082;23;20010;-88
2024/01/18 22:04:07;;;;;;;6.20;4.13;;;;;;;-145.06;100.00;60892.56;5877233;23;20007;-90
2024/01/18 22:07:26;;;;;;;6.13;3.65;;;;;;;-145.06;100.00;60892.56;5877048;23;20377;-90
2024/01/18 22:10:11;;;;;;;5.50;3.58;;;;;;;1.38;100.00;60892.56;5876966;23;20006;-90
2024/01/18 22:16:27;;;;;;;5.05;3.35;;;;;;;-145.06;100.00;60892.56;5887163;23;20044;-90